createdAt,value
2022-10-09T00:03:24.456Z,7.30
2022-10-09T00:09:29.174Z,8.10
2022-10-09T00:15:32.563Z,6.78
2022-10-09T00:21:35.983Z,6.25
2022-10-09T00:27:40.985Z,6.82
2022-10-09T00:33:44.878Z,6.88
2022-10-09T00:39:48.323Z,8.00
2022-10-09T00:45:56.440Z,7.53
2022-10-09T00:52:01.939Z,6.72
2022-10-09T00:58:05.681Z,8.13
2022-10-09T01:04:10.537Z,7.50
2022-10-09T01:10:19.262Z,8.18
2022-10-09T01:16:25.889Z,8.63
2022-10-09T01:22:40.667Z,7.38
2022-10-09T01:28:47.336Z,7.70
2022-10-09T01:34:51.506Z,7.57
2022-10-09T01:40:55.386Z,8.70
2022-10-09T01:47:02.118Z,8.50
2022-10-09T01:53:08.092Z,8.80
2022-10-09T01:59:16.037Z,8.15
2022-10-09T02:05:22.084Z,8.48
2022-10-09T02:11:27.633Z,8.23
2022-10-09T02:17:33.694Z,8.18
2022-10-09T02:23:39.436Z,8.57
2022-10-09T02:29:43.412Z,9.27
2022-10-09T02:35:47.560Z,8.30
2022-10-09T02:41:52.348Z,8.65
2022-10-09T02:47:55.749Z,9.07
2022-10-09T02:53:59.926Z,8.95
2022-10-09T03:00:04.926Z,8.60
2022-10-09T03:06:09.589Z,8.70
2022-10-09T03:12:14.017Z,8.63
2022-10-09T03:18:18.817Z,8.30
2022-10-09T03:24:22.231Z,8.80
2022-10-09T03:30:25.877Z,8.80
2022-10-09T03:36:30.603Z,8.88
2022-10-09T03:42:34.020Z,8.48
2022-10-09T03:48:38.444Z,10.25
2022-10-09T03:54:43.210Z,9.98
2022-10-09T04:00:46.699Z,9.57
2022-10-09T04:06:50.093Z,9.90
2022-10-09T04:12:54.840Z,9.65
2022-10-09T04:18:58.208Z,10.35
2022-10-09T04:25:01.723Z,9.60
2022-10-09T04:31:07.334Z,9.68
2022-10-09T04:37:10.775Z,10.73
2022-10-09T04:43:14.182Z,10.43
2022-10-09T04:49:19.218Z,10.80
2022-10-09T04:55:22.599Z,10.85
2022-10-09T05:01:26.951Z,9.80
2022-10-09T05:07:31.825Z,11.02
2022-10-09T05:13:36.710Z,10.73
2022-10-09T05:19:40.180Z,9.35
2022-10-09T05:25:45.151Z,9.15
2022-10-09T05:31:49.626Z,8.60
2022-10-09T05:37:53.233Z,9.23
2022-10-09T05:44:02.778Z,9.38
2022-10-09T05:50:06.518Z,8.82
2022-10-09T05:56:13.759Z,8.68
2022-10-09T06:02:18.535Z,8.45
2022-10-09T06:08:22.069Z,8.77
2022-10-09T06:14:26.169Z,8.05
2022-10-09T06:20:31.059Z,8.10
2022-10-09T06:26:35.073Z,9.43
2022-10-09T06:32:38.493Z,8.63
2022-10-09T06:38:43.564Z,9.75
2022-10-09T06:44:46.978Z,8.90
2022-10-09T06:50:50.382Z,8.48
2022-10-09T06:56:55.620Z,8.60
2022-10-09T07:02:59.173Z,9.18
2022-10-09T07:09:03.647Z,9.88
2022-10-09T07:15:09.426Z,9.68
2022-10-09T07:21:12.862Z,10.65
2022-10-09T07:27:16.577Z,9.93
2022-10-09T07:33:23.138Z,9.43
2022-10-09T07:39:29.472Z,8.48
2022-10-09T07:45:33.116Z,8.85
2022-10-09T07:51:38.014Z,9.73
2022-10-09T07:57:41.442Z,10.98
2022-10-09T08:03:44.913Z,9.70
2022-10-09T08:09:49.770Z,7.90
2022-10-09T08:15:53.303Z,8.32
2022-10-09T08:22:00.114Z,7.80
2022-10-09T08:28:07.488Z,7.35
2022-10-09T08:34:12.072Z,7.40
2022-10-09T08:40:18.080Z,6.25
2022-10-09T08:46:25.659Z,6.00
2022-10-09T08:52:32.784Z,4.90
2022-10-09T08:58:38.089Z,5.05
2022-10-09T09:04:54.444Z,5.05
2022-10-09T09:11:04.780Z,4.55
2022-10-09T09:17:10.532Z,4.95
2022-10-09T09:23:17.513Z,3.80
2022-10-09T09:29:24.350Z,4.03
2022-10-09T09:35:31.443Z,4.53
2022-10-09T09:41:36.222Z,3.90
2022-10-09T09:47:42.235Z,3.80
2022-10-09T09:53:46.457Z,3.60
2022-10-09T09:59:51.191Z,3.60
2022-10-09T10:05:54.629Z,3.85
2022-10-09T10:11:59.322Z,2.10
2022-10-09T10:18:05.401Z,3.15
2022-10-09T10:24:14.031Z,3.17
2022-10-09T10:30:18.619Z,3.28
2022-10-09T10:36:23.449Z,3.00
2022-10-09T10:42:27.935Z,2.95
2022-10-09T10:48:32.921Z,3.05
2022-10-09T10:54:40.358Z,3.05
2022-10-09T11:00:46.013Z,3.42
2022-10-09T11:06:55.602Z,2.65
2022-10-09T11:13:03.818Z,2.28
2022-10-09T11:19:15.895Z,2.70
2022-10-09T11:25:24.187Z,3.47
2022-10-09T11:31:31.685Z,2.88
2022-10-09T11:37:38.672Z,3.72
2022-10-09T11:43:45.468Z,3.50
2022-10-09T11:49:59.552Z,2.85
2022-10-09T11:56:03.570Z,3.13
2022-10-09T12:02:15.751Z,3.25
2022-10-09T12:08:27.304Z,3.80
2022-10-09T12:14:31.430Z,3.75
2022-10-09T12:20:34.923Z,2.53
2022-10-09T12:26:39.813Z,3.28
2022-10-09T12:32:45.482Z,3.63
2022-10-09T12:38:48.991Z,2.40
2022-10-09T12:44:56.048Z,2.58
2022-10-09T12:50:59.514Z,2.78
2022-10-09T12:57:03.330Z,3.15
2022-10-09T13:03:08.402Z,2.70
2022-10-09T13:09:20.752Z,2.60
2022-10-09T13:15:31.582Z,3.53
2022-10-09T13:21:36.364Z,3.33
2022-10-09T13:27:40.578Z,3.35
2022-10-09T13:33:44.041Z,3.30
2022-10-09T13:39:49.094Z,2.72
2022-10-09T13:45:52.595Z,3.15
2022-10-09T13:51:56.000Z,2.78
2022-10-09T13:58:00.782Z,2.90
2022-10-09T14:04:04.401Z,2.60
2022-10-09T14:10:08.376Z,2.60
2022-10-09T14:16:13.174Z,2.70
2022-10-09T14:22:16.731Z,1.80
2022-10-09T14:28:20.222Z,2.03
2022-10-09T14:34:25.003Z,2.08
2022-10-09T14:40:28.578Z,1.80
2022-10-09T14:46:34.169Z,1.80
2022-10-09T14:52:38.914Z,2.05
2022-10-09T14:58:42.629Z,1.60
2022-10-09T15:04:46.018Z,1.60
2022-10-09T15:10:52.357Z,1.70
2022-10-09T15:16:55.845Z,1.60
2022-10-09T15:22:59.250Z,1.52
2022-10-09T15:29:05.143Z,1.27
2022-10-09T15:35:09.213Z,1.40
2022-10-09T15:41:21.686Z,1.23
2022-10-09T15:47:49.397Z,1.40
2022-10-09T15:53:52.095Z,1.50
2022-10-09T15:59:55.497Z,1.40
2022-10-09T16:06:00.872Z,1.77
2022-10-09T16:12:04.457Z,3.28
2022-10-09T16:18:07.869Z,4.25
2022-10-09T16:24:12.641Z,3.70
2022-10-09T16:30:16.820Z,4.03
2022-10-09T16:36:20.263Z,4.03
2022-10-09T16:42:41.381Z,4.32
2022-10-09T16:48:44.838Z,2.58
2022-10-09T16:54:49.718Z,3.95
2022-10-09T17:01:18.107Z,4.25
2022-10-09T17:07:29.363Z,2.08
2022-10-09T17:13:54.885Z,2.10
2022-10-09T17:19:58.498Z,1.90
2022-10-09T17:26:12.258Z,2.17
2022-10-09T17:32:15.688Z,2.63
2022-10-09T17:38:19.238Z,3.58
2022-10-09T17:44:24.016Z,3.15
2022-10-09T17:50:27.480Z,3.28
2022-10-09T17:56:31.557Z,3.72
2022-10-09T18:02:36.261Z,3.63
2022-10-09T18:08:39.721Z,4.72
2022-10-09T18:14:51.949Z,4.90
2022-10-09T18:21:04.281Z,5.00
2022-10-09T18:27:10.239Z,6.25
2022-10-09T18:33:14.501Z,6.70
2022-10-09T18:39:21.625Z,6.88
2022-10-09T18:45:28.813Z,7.60
2022-10-09T18:51:32.747Z,7.75
2022-10-09T18:57:49.499Z,7.43
2022-10-09T19:03:59.149Z,7.13
2022-10-09T19:10:07.590Z,8.10
2022-10-09T19:16:12.688Z,7.68
2022-10-09T19:22:20.030Z,8.20
2022-10-09T19:28:30.534Z,8.27
2022-10-09T19:34:35.522Z,8.00
2022-10-09T19:40:43.614Z,7.60
2022-10-09T19:46:48.332Z,8.15
2022-10-09T19:52:53.139Z,8.27
2022-10-09T19:58:57.845Z,8.70
2022-10-09T20:05:01.365Z,7.95
2022-10-09T20:11:06.612Z,7.97
2022-10-09T20:17:18.411Z,7.45
2022-10-09T20:23:21.787Z,7.50
2022-10-09T20:29:27.287Z,7.00
2022-10-09T20:35:31.187Z,6.82
2022-10-09T20:41:52.241Z,6.80
2022-10-09T20:47:57.045Z,6.68
2022-10-09T20:54:16.248Z,6.45
2022-10-09T21:00:26.000Z,6.30
2022-10-09T21:06:31.431Z,5.95
2022-10-09T21:12:40.470Z,6.43
2022-10-09T21:18:47.078Z,6.47
2022-10-09T21:24:51.836Z,6.97
2022-10-09T21:30:55.188Z,6.15
2022-10-09T21:37:20.273Z,6.70
2022-10-09T21:43:26.061Z,7.60
2022-10-09T21:49:29.736Z,6.47
2022-10-09T21:55:33.317Z,6.60
2022-10-09T22:01:38.160Z,7.00
2022-10-09T22:07:41.606Z,6.43
2022-10-09T22:13:45.265Z,7.10
2022-10-09T22:19:50.640Z,6.10
2022-10-09T22:26:01.222Z,6.72
2022-10-09T22:32:16.388Z,6.65
2022-10-09T22:38:23.012Z,6.18
2022-10-09T22:44:28.485Z,6.45
2022-10-09T22:50:45.239Z,6.60
2022-10-09T22:56:50.767Z,6.60
2022-10-09T23:03:00.836Z,6.50
2022-10-09T23:09:26.892Z,6.28
2022-10-09T23:15:36.665Z,6.30
2022-10-09T23:21:42.146Z,5.57
2022-10-09T23:27:45.652Z,6.57
2022-10-09T23:33:59.513Z,5.65
2022-10-09T23:40:14.532Z,5.43
2022-10-09T23:46:26.181Z,5.18
2022-10-09T23:52:32.399Z,5.82
2022-10-09T23:58:39.800Z,6.43
